createdAt,value
2023-02-22T00:02:22.276Z,70.05
2023-02-22T00:04:51.792Z,70.43
2023-02-22T00:07:21.426Z,72.47
2023-02-22T00:09:49.506Z,72.00
2023-02-22T00:12:17.636Z,73.20
2023-02-22T00:14:45.702Z,70.40
2023-02-22T00:17:13.870Z,70.68
2023-02-22T00:19:41.838Z,73.85
2023-02-22T00:22:11.309Z,72.85
2023-02-22T00:24:39.465Z,76.30
2023-02-22T00:27:07.393Z,73.47
2023-02-22T00:29:35.773Z,73.30
2023-02-22T00:32:04.177Z,74.15
2023-02-22T00:34:32.206Z,75.97
2023-02-22T00:37:02.928Z,69.80
2023-02-22T00:39:32.761Z,74.17
2023-02-22T00:42:00.807Z,106.53
2023-02-22T00:44:29.007Z,128.00
2023-02-22T00:46:56.963Z,132.88
2023-02-22T00:49:26.154Z,113.25
2023-02-22T00:51:54.807Z,109.10
2023-02-22T00:54:23.021Z,109.28
2023-02-22T00:56:52.544Z,97.80
2023-02-22T00:59:20.559Z,83.20
2023-02-22T01:01:48.711Z,75.40
2023-02-22T01:04:18.424Z,71.97
2023-02-22T01:06:46.566Z,69.28
2023-02-22T01:09:14.974Z,68.55
2023-02-22T01:11:43.012Z,66.30
2023-02-22T01:14:12.483Z,65.35
2023-02-22T01:16:40.537Z,65.07
2023-02-22T01:19:08.527Z,66.63
2023-02-22T01:21:36.766Z,66.37
2023-02-22T01:24:05.370Z,65.80
2023-02-22T01:26:33.693Z,63.50
2023-02-22T01:29:02.229Z,64.05
2023-02-22T01:31:31.939Z,67.47
2023-02-22T01:34:00.711Z,61.87
2023-02-22T01:36:29.026Z,66.63
2023-02-22T01:38:57.539Z,66.93
2023-02-22T01:41:26.076Z,65.57
2023-02-22T01:43:54.667Z,66.15
2023-02-22T01:46:25.765Z,74.43
2023-02-22T01:48:58.705Z,66.30
2023-02-22T01:51:30.964Z,68.87
2023-02-22T01:54:06.280Z,68.30
2023-02-22T01:56:38.218Z,64.80
2023-02-22T01:59:10.263Z,67.73
2023-02-22T02:01:43.087Z,66.97
2023-02-22T02:04:17.730Z,69.10
2023-02-22T02:06:47.071Z,71.63
2023-02-22T02:09:22.721Z,70.50
2023-02-22T02:11:51.264Z,75.23
2023-02-22T02:14:19.489Z,66.90
2023-02-22T02:16:50.994Z,70.93
2023-02-22T02:19:30.486Z,74.00
2023-02-22T02:22:25.321Z,81.00
2023-02-22T02:25:29.129Z,67.27
2023-02-22T02:28:22.946Z,78.25
2023-02-22T02:31:13.430Z,80.50
2023-02-22T02:33:45.534Z,72.53
2023-02-22T02:36:21.699Z,77.90
2023-02-22T02:38:57.216Z,77.63
2023-02-22T02:41:31.555Z,77.93
2023-02-22T02:44:04.611Z,71.87
2023-02-22T02:46:36.595Z,79.03
2023-02-22T02:49:12.128Z,78.60
2023-02-22T02:51:43.866Z,81.50
2023-02-22T02:54:17.157Z,85.63
2023-02-22T02:56:46.797Z,78.67
2023-02-22T02:59:28.246Z,80.37
2023-02-22T03:02:15.272Z,81.33
2023-02-22T03:04:59.971Z,91.90
2023-02-22T03:07:44.178Z,82.53
2023-02-22T03:10:26.752Z,84.80
2023-02-22T03:13:07.234Z,92.60
2023-02-22T03:15:50.164Z,89.50
2023-02-22T03:18:29.184Z,90.83
2023-02-22T03:21:10.322Z,87.60
2023-02-22T03:23:47.342Z,86.93
2023-02-22T03:26:28.698Z,90.57
2023-02-22T03:28:58.595Z,88.00
2023-02-22T03:31:37.441Z,93.57
2023-02-22T03:34:10.103Z,89.40
2023-02-22T03:36:45.765Z,88.40
2023-02-22T03:39:18.059Z,88.87
2023-02-22T03:41:51.515Z,92.03
2023-02-22T03:44:24.730Z,83.47
2023-02-22T03:46:57.935Z,93.83
2023-02-22T03:49:33.586Z,87.70
2023-02-22T03:52:04.395Z,93.00
2023-02-22T03:54:34.982Z,76.50
2023-02-22T03:57:10.679Z,86.00
2023-02-22T03:59:39.919Z,84.60
2023-02-22T04:02:08.966Z,89.80
2023-02-22T04:04:40.887Z,93.73
2023-02-22T04:07:11.286Z,100.73
2023-02-22T04:09:40.001Z,98.07
2023-02-22T04:12:11.661Z,79.90
2023-02-22T04:14:42.801Z,83.20
2023-02-22T04:17:11.083Z,81.00
2023-02-22T04:19:39.922Z,95.73
2023-02-22T04:22:08.923Z,94.03
2023-02-22T04:24:39.484Z,96.60
2023-02-22T04:27:07.629Z,102.13
2023-02-22T04:29:36.034Z,106.47
2023-02-22T04:32:07.721Z,77.57
2023-02-22T04:34:35.965Z,90.57
2023-02-22T04:37:04.209Z,90.93
2023-02-22T04:39:33.047Z,92.63
2023-02-22T04:42:03.385Z,87.63
2023-02-22T04:44:33.521Z,96.87
2023-02-22T04:47:03.111Z,114.97
2023-02-22T04:49:32.708Z,94.93
2023-02-22T04:52:01.265Z,95.80
2023-02-22T04:54:29.901Z,114.90
2023-02-22T04:56:58.334Z,105.03
2023-02-22T04:59:28.489Z,99.77
2023-02-22T05:01:56.794Z,132.90
2023-02-22T05:04:25.239Z,92.17
2023-02-22T05:06:55.079Z,111.50
2023-02-22T05:09:24.421Z,101.53
2023-02-22T05:11:53.213Z,115.30
2023-02-22T05:14:21.775Z,110.07
2023-02-22T05:16:52.661Z,104.27
2023-02-22T05:19:22.354Z,111.27
2023-02-22T05:21:50.694Z,140.63
2023-02-22T05:24:22.870Z,116.73
2023-02-22T05:26:53.513Z,105.13
2023-02-22T05:29:21.968Z,145.50
2023-02-22T05:31:51.957Z,168.90
2023-02-22T05:34:20.165Z,184.43
2023-02-22T05:36:48.473Z,75.73
2023-02-22T05:39:16.977Z,69.03
2023-02-22T05:41:45.929Z,65.83
2023-02-22T05:44:14.334Z,70.40
2023-02-22T05:46:42.922Z,71.23
2023-02-22T05:49:13.414Z,69.47
2023-02-22T05:51:42.017Z,66.83
2023-02-22T05:54:10.572Z,81.67
2023-02-22T05:56:38.768Z,65.63
2023-02-22T05:59:07.017Z,94.57
2023-02-22T06:01:35.448Z,84.00
2023-02-22T06:04:03.857Z,71.10
2023-02-22T06:06:33.971Z,85.03
2023-02-22T06:09:02.143Z,87.97
2023-02-22T06:11:31.080Z,90.93
2023-02-22T06:14:00.126Z,65.67
2023-02-22T06:16:28.941Z,74.67
2023-02-22T06:18:58.342Z,95.40
2023-02-22T06:21:29.710Z,84.43
2023-02-22T06:23:59.563Z,60.97
2023-02-22T06:26:28.191Z,69.67
2023-02-22T06:28:57.123Z,66.70
2023-02-22T06:31:25.483Z,75.60
2023-02-22T06:33:53.843Z,62.80
2023-02-22T06:36:22.389Z,67.07
2023-02-22T06:38:50.627Z,66.87
2023-02-22T06:41:21.421Z,55.03
2023-02-22T06:43:55.770Z,68.43
2023-02-22T06:46:24.844Z,87.80
2023-02-22T06:48:53.079Z,87.63
2023-02-22T06:51:22.595Z,70.53
2023-02-22T06:53:50.842Z,59.43
2023-02-22T06:56:21.259Z,58.30
2023-02-22T06:58:50.593Z,54.17
2023-02-22T07:01:19.024Z,62.50
2023-02-22T07:03:47.577Z,58.90
2023-02-22T07:06:16.043Z,50.53
2023-02-22T07:08:44.215Z,51.97
2023-02-22T07:11:12.498Z,51.00
2023-02-22T07:13:48.500Z,50.17
2023-02-22T07:16:17.045Z,50.70
2023-02-22T07:18:45.638Z,55.03
2023-02-22T07:21:14.721Z,52.13
2023-02-22T07:23:43.135Z,51.47
2023-02-22T07:26:13.988Z,42.00
2023-02-22T07:28:43.766Z,48.87
2023-02-22T07:31:12.205Z,48.30
2023-02-22T07:33:40.780Z,46.53
2023-02-22T07:36:12.078Z,44.83
2023-02-22T07:38:40.918Z,46.67
2023-02-22T07:41:10.425Z,47.60
2023-02-22T07:43:38.723Z,46.40
2023-02-22T07:46:09.030Z,47.77
2023-02-22T07:48:37.777Z,46.47
2023-02-22T07:51:07.428Z,46.03
2023-02-22T07:53:36.245Z,49.23
2023-02-22T07:56:10.787Z,45.87
2023-02-22T07:58:39.235Z,52.27
2023-02-22T08:01:09.495Z,46.37
2023-02-22T08:03:38.408Z,47.23
2023-02-22T08:06:08.998Z,45.73
2023-02-22T08:08:39.497Z,43.97
2023-02-22T08:11:08.190Z,47.37
2023-02-22T08:13:37.451Z,42.20
2023-02-22T08:16:06.597Z,43.97
2023-02-22T08:18:42.697Z,44.73
2023-02-22T08:21:11.166Z,44.03
2023-02-22T08:23:39.716Z,47.40
2023-02-22T08:26:09.843Z,48.40
2023-02-22T08:28:39.058Z,47.07
2023-02-22T08:31:12.174Z,42.20
2023-02-22T08:33:43.121Z,42.80
2023-02-22T08:36:15.180Z,44.43
2023-02-22T08:38:44.499Z,42.97
2023-02-22T08:41:13.116Z,44.17
2023-02-22T08:43:41.864Z,45.57
2023-02-22T08:46:10.305Z,42.13
2023-02-22T08:48:38.579Z,48.33
2023-02-22T08:51:09.759Z,44.58
2023-02-22T08:53:40.117Z,47.17
2023-02-22T08:56:11.417Z,45.70
2023-02-22T08:58:39.671Z,45.72
2023-02-22T09:01:07.821Z,42.58
2023-02-22T09:03:36.498Z,45.25
2023-02-22T09:06:08.679Z,43.28
2023-02-22T09:08:42.061Z,44.53
2023-02-22T09:11:12.836Z,46.83
2023-02-22T09:13:42.036Z,44.50
2023-02-22T09:16:15.059Z,41.80
2023-02-22T09:18:44.726Z,42.60
2023-02-22T09:21:16.104Z,42.27
2023-02-22T09:23:55.183Z,40.83
2023-02-22T09:26:25.006Z,40.15
2023-02-22T09:28:53.343Z,40.15
2023-02-22T09:31:22.053Z,45.05
2023-02-22T09:33:50.811Z,39.15
2023-02-22T09:36:21.680Z,41.33
2023-02-22T09:38:51.490Z,41.10
2023-02-22T09:41:34.553Z,38.15
2023-02-22T09:44:19.792Z,39.27
2023-02-22T09:46:52.017Z,39.03
2023-02-22T09:49:25.147Z,39.63
2023-02-22T09:52:04.454Z,40.38
2023-02-22T09:54:43.036Z,37.13
2023-02-22T09:57:17.582Z,38.85
2023-02-22T09:59:58.384Z,40.10
2023-02-22T10:02:30.771Z,37.00
2023-02-22T10:05:06.840Z,40.08
2023-02-22T10:07:41.030Z,37.65
2023-02-22T10:10:18.122Z,39.80
2023-02-22T10:12:55.167Z,38.80
2023-02-22T10:15:55.173Z,39.15
2023-02-22T10:19:02.852Z,42.53
2023-02-22T10:21:42.860Z,39.35
2023-02-22T10:24:25.010Z,40.05
2023-02-22T10:26:56.850Z,39.42
2023-02-22T10:29:34.118Z,40.47
2023-02-22T10:32:05.863Z,41.65
2023-02-22T10:34:39.573Z,40.15
2023-02-22T10:37:22.623Z,38.85
2023-02-22T10:39:57.519Z,38.25
2023-02-22T10:42:29.466Z,38.92
2023-02-22T10:45:08.501Z,37.83
2023-02-22T10:47:37.750Z,39.28
2023-02-22T10:50:06.871Z,39.47
2023-02-22T10:52:36.283Z,39.08
2023-02-22T10:55:15.695Z,37.25
2023-02-22T10:57:52.642Z,38.00
2023-02-22T11:00:26.543Z,41.00
2023-02-22T11:03:01.634Z,40.28
2023-02-22T11:05:36.756Z,37.63
2023-02-22T11:08:25.890Z,38.55
2023-02-22T11:10:56.874Z,38.15
2023-02-22T11:13:33.546Z,37.85
2023-02-22T11:16:18.860Z,38.75
2023-02-22T11:18:48.592Z,36.90
2023-02-22T11:21:24.510Z,38.38
2023-02-22T11:24:04.320Z,37.40
2023-02-22T11:26:41.378Z,36.65
2023-02-22T11:29:21.374Z,36.65
2023-02-22T11:31:51.133Z,36.40
2023-02-22T11:34:33.605Z,37.63
2023-02-22T11:37:36.770Z,37.60
2023-02-22T11:40:14.215Z,38.10
2023-02-22T11:42:42.560Z,37.58
2023-02-22T11:45:14.866Z,38.08
2023-02-22T11:47:56.050Z,38.65
2023-02-22T11:50:30.790Z,37.83
2023-02-22T11:53:25.201Z,38.92
2023-02-22T11:56:02.869Z,39.40
2023-02-22T11:58:42.606Z,39.03
2023-02-22T12:01:27.696Z,37.67
2023-02-22T12:04:34.259Z,39.58
2023-02-22T12:07:21.692Z,38.63
2023-02-22T12:09:59.260Z,39.60
2023-02-22T12:12:36.653Z,40.03
2023-02-22T12:15:14.021Z,39.33
2023-02-22T12:17:59.992Z,41.78
2023-02-22T12:20:39.869Z,40.95
2023-02-22T12:23:22.908Z,42.03
2023-02-22T12:25:59.986Z,41.15
2023-02-22T12:28:36.432Z,41.35
2023-02-22T12:31:17.461Z,41.78
2023-02-22T12:34:01.464Z,40.55
2023-02-22T12:36:41.129Z,41.38
2023-02-22T12:39:47.152Z,41.67
2023-02-22T12:42:28.935Z,42.10
2023-02-22T12:45:05.086Z,41.90
2023-02-22T12:47:41.848Z,43.00
2023-02-22T12:50:19.352Z,43.50
2023-02-22T12:52:52.836Z,43.65
2023-02-22T12:55:26.391Z,43.05
2023-02-22T12:57:59.818Z,42.67
2023-02-22T13:00:32.398Z,42.40
2023-02-22T13:03:06.470Z,43.28
2023-02-22T13:05:46.907Z,44.13
2023-02-22T13:08:28.853Z,44.65
2023-02-22T13:11:12.069Z,44.47
2023-02-22T13:13:55.010Z,44.50
2023-02-22T13:16:39.501Z,45.38
2023-02-22T13:19:22.281Z,44.97
2023-02-22T13:22:10.216Z,45.28
2023-02-22T13:25:07.193Z,44.75
2023-02-22T13:27:42.175Z,45.70
2023-02-22T13:30:20.689Z,44.75
2023-02-22T13:33:17.213Z,43.78
2023-02-22T13:36:13.615Z,45.30
2023-02-22T13:39:07.984Z,45.17
2023-02-22T13:41:55.168Z,44.15
2023-02-22T13:44:49.962Z,43.90
2023-02-22T13:48:00.105Z,45.35
2023-02-22T13:50:42.895Z,43.90
2023-02-22T14:03:49.906Z,45.58
2023-02-22T14:06:43.222Z,47.42
2023-02-22T14:09:20.440Z,43.50
2023-02-22T14:11:54.364Z,45.63
2023-02-22T14:14:26.074Z,44.83
2023-02-22T14:17:24.101Z,44.97
2023-02-22T14:20:32.837Z,45.50
2023-02-22T14:23:32.495Z,45.42
2023-02-22T14:26:12.697Z,47.15
2023-02-22T14:28:54.909Z,43.88
2023-02-22T14:31:36.065Z,45.22
2023-02-22T14:34:08.751Z,44.70
2023-02-22T14:37:07.586Z,44.80
2023-02-22T14:39:39.253Z,46.58
2023-02-22T14:42:12.554Z,46.05
2023-02-22T14:45:03.066Z,45.35
2023-02-22T14:47:43.819Z,45.72
2023-02-22T14:50:23.398Z,47.60
2023-02-22T14:53:02.177Z,47.10
2023-02-22T14:55:40.064Z,47.10
2023-02-22T14:58:24.148Z,48.88
2023-02-22T15:00:56.853Z,48.35
2023-02-22T15:03:41.102Z,49.03
2023-02-22T15:06:18.390Z,50.40
2023-02-22T15:09:07.990Z,47.83
2023-02-22T15:11:45.597Z,53.75
2023-02-22T15:14:25.755Z,54.90
2023-02-22T15:17:00.850Z,54.28
2023-02-22T15:19:35.565Z,53.90
2023-02-22T15:22:09.570Z,51.42
2023-02-22T15:24:40.983Z,52.88
2023-02-22T15:27:18.172Z,53.28
2023-02-22T15:29:52.893Z,54.58
2023-02-22T15:32:30.763Z,54.58
2023-02-22T15:35:14.441Z,54.88
2023-02-22T15:37:44.547Z,53.90
2023-02-22T15:40:21.073Z,57.20
2023-02-22T15:42:53.278Z,60.38
2023-02-22T15:45:25.137Z,56.20
2023-02-22T15:47:58.705Z,63.60
2023-02-22T15:50:28.787Z,58.00
2023-02-22T15:52:59.434Z,60.88
2023-02-22T15:55:33.887Z,64.13
2023-02-22T15:58:11.044Z,67.15
2023-02-22T16:00:42.593Z,71.32
2023-02-22T16:03:13.742Z,66.85
2023-02-22T16:05:46.794Z,66.80
2023-02-22T16:08:19.275Z,66.60
2023-02-22T16:10:55.089Z,65.18
2023-02-22T16:13:31.876Z,73.75
2023-02-22T16:16:02.201Z,68.85
2023-02-22T16:18:34.485Z,69.40
2023-02-22T16:21:11.824Z,66.50
2023-02-22T16:23:49.138Z,74.07
2023-02-22T16:26:35.740Z,70.47
2023-02-22T16:29:06.018Z,68.95
2023-02-22T16:31:36.839Z,66.68
2023-02-22T16:34:07.582Z,62.47
2023-02-22T16:36:42.390Z,68.43
2023-02-22T16:39:19.172Z,60.88
2023-02-22T16:41:49.133Z,59.50
2023-02-22T16:44:17.926Z,62.63
2023-02-22T16:46:49.716Z,63.80
2023-02-22T16:49:18.566Z,67.72
2023-02-22T16:51:50.685Z,67.53
2023-02-22T16:54:34.413Z,64.75
2023-02-22T16:57:15.493Z,71.25
2023-02-22T16:59:43.682Z,63.75
2023-02-22T17:02:16.644Z,68.90
2023-02-22T17:04:49.414Z,66.38
2023-02-22T17:07:20.345Z,69.40
2023-02-22T17:09:50.836Z,65.43
2023-02-22T17:12:21.042Z,62.65
2023-02-22T17:14:49.719Z,63.80
2023-02-22T17:17:27.631Z,64.07
2023-02-22T17:19:56.367Z,64.40
2023-02-22T17:22:24.980Z,71.70
2023-02-22T17:24:53.441Z,62.28
2023-02-22T17:27:23.520Z,63.03
2023-02-22T17:29:51.718Z,68.90
2023-02-22T17:32:20.275Z,63.30
2023-02-22T17:34:48.461Z,65.18
2023-02-22T17:37:16.638Z,64.50
2023-02-22T17:39:44.858Z,65.50
2023-02-22T17:42:15.596Z,65.68
2023-02-22T17:44:45.279Z,67.00
2023-02-22T17:47:13.719Z,60.97
2023-02-22T17:49:41.950Z,59.17
2023-02-22T17:52:09.950Z,62.85
2023-02-22T17:54:39.284Z,65.80
2023-02-22T17:57:07.509Z,62.15
2023-02-22T17:59:43.181Z,61.15
2023-02-22T18:02:13.313Z,52.80
2023-02-22T18:04:44.619Z,53.15
2023-02-22T18:07:14.310Z,52.25
2023-02-22T18:09:45.112Z,51.80
2023-02-22T18:12:14.889Z,53.67
2023-02-22T18:14:43.324Z,51.85
2023-02-22T18:17:16.729Z,52.83
2023-02-22T18:19:44.999Z,57.15
2023-02-22T18:22:16.735Z,56.13
2023-02-22T18:24:44.981Z,53.97
2023-02-22T18:27:16.326Z,56.17
2023-02-22T18:29:44.595Z,53.65
2023-02-22T18:32:14.296Z,56.65
2023-02-22T18:34:45.881Z,54.85
2023-02-22T18:37:20.512Z,57.75
2023-02-22T18:40:10.344Z,57.45
2023-02-22T18:42:41.852Z,57.33
2023-02-22T18:45:15.058Z,56.13
2023-02-22T18:47:47.852Z,52.25
2023-02-22T18:50:17.436Z,54.28
2023-02-22T18:52:46.386Z,58.42
2023-02-22T18:55:16.028Z,57.15
2023-02-22T18:57:48.061Z,53.58
2023-02-22T19:00:18.364Z,56.05
2023-02-22T19:02:48.468Z,57.20
2023-02-22T19:05:17.382Z,56.33
2023-02-22T19:07:45.824Z,57.05
2023-02-22T19:10:14.036Z,57.88
2023-02-22T19:12:42.113Z,55.72
2023-02-22T19:15:11.960Z,57.03
2023-02-22T19:17:42.898Z,56.80
2023-02-22T19:20:17.121Z,59.03
2023-02-22T19:22:45.837Z,55.78
2023-02-22T19:25:14.715Z,53.88
2023-02-22T19:27:44.535Z,57.72
2023-02-22T19:30:20.616Z,61.00
2023-02-22T19:32:49.108Z,58.20
2023-02-22T19:35:26.435Z,59.63
2023-02-22T19:37:57.206Z,58.92
2023-02-22T19:40:26.454Z,56.78
2023-02-22T19:42:56.183Z,58.40
2023-02-22T19:45:26.082Z,55.78
2023-02-22T19:47:56.890Z,56.33
2023-02-22T19:50:27.471Z,63.17
2023-02-22T19:52:56.300Z,57.80
2023-02-22T19:55:29.748Z,56.45
2023-02-22T19:57:58.190Z,58.50
2023-02-22T20:00:27.737Z,57.78
2023-02-22T20:03:05.918Z,59.63
2023-02-22T20:05:39.602Z,58.88
2023-02-22T20:08:07.998Z,61.40
2023-02-22T20:10:37.171Z,59.03
2023-02-22T20:13:07.326Z,64.22
2023-02-22T20:15:36.362Z,65.82
2023-02-22T20:18:04.822Z,59.97
2023-02-22T20:20:40.533Z,63.00
2023-02-22T20:23:09.574Z,60.75
2023-02-22T20:25:38.622Z,69.47
2023-02-22T20:28:07.865Z,59.78
2023-02-22T20:30:38.343Z,65.68
2023-02-22T20:33:08.814Z,68.57
2023-02-22T20:35:39.018Z,64.90
2023-02-22T20:38:07.707Z,63.88
2023-02-22T20:40:35.906Z,61.38
2023-02-22T20:43:04.974Z,77.63
2023-02-22T20:45:36.332Z,59.10
2023-02-22T20:48:06.884Z,55.75
2023-02-22T20:50:38.369Z,55.65
2023-02-22T20:53:07.026Z,56.70
2023-02-22T20:55:35.271Z,58.55
2023-02-22T20:58:03.975Z,56.58
2023-02-22T21:00:33.381Z,60.42
2023-02-22T21:03:01.609Z,55.90
2023-02-22T21:05:33.595Z,61.03
2023-02-22T21:08:03.692Z,61.70
2023-02-22T21:10:33.900Z,51.85
2023-02-22T21:13:05.630Z,58.72
2023-02-22T21:15:36.566Z,59.78
2023-02-22T21:18:05.713Z,60.97
2023-02-22T21:20:37.981Z,58.72
2023-02-22T21:23:08.764Z,60.28
2023-02-22T21:25:39.239Z,59.08
2023-02-22T21:28:14.583Z,61.72
2023-02-22T21:30:42.948Z,64.93
2023-02-22T21:33:12.771Z,64.03
2023-02-22T21:35:43.409Z,57.40
2023-02-22T21:38:18.096Z,60.80
2023-02-22T21:40:57.919Z,57.35
2023-02-22T21:43:31.015Z,56.83
2023-02-22T21:46:02.904Z,56.92
2023-02-22T21:48:31.573Z,60.30
2023-02-22T21:51:01.264Z,57.17
2023-02-22T21:53:30.872Z,57.10
2023-02-22T21:56:05.114Z,59.67
2023-02-22T21:58:36.577Z,55.15
2023-02-22T22:01:08.521Z,55.30
2023-02-22T22:03:40.030Z,56.20
2023-02-22T22:06:13.291Z,55.90
2023-02-22T22:08:46.262Z,57.80
2023-02-22T22:11:19.070Z,59.00
2023-02-22T22:13:48.632Z,63.95
2023-02-22T22:16:20.454Z,61.95
2023-02-22T22:18:48.767Z,59.88
2023-02-22T22:21:22.816Z,55.28
2023-02-22T22:23:54.547Z,57.30
2023-02-22T22:26:25.693Z,59.00
2023-02-22T22:28:58.935Z,56.65
2023-02-22T22:31:28.995Z,55.50
2023-02-22T22:33:57.907Z,55.83
2023-02-22T22:36:27.757Z,59.63
2023-02-22T22:38:58.622Z,65.05
2023-02-22T22:41:32.888Z,55.75
2023-02-22T22:44:01.266Z,60.15
2023-02-22T22:46:30.064Z,62.05
2023-02-22T22:48:58.923Z,60.92
2023-02-22T22:51:27.333Z,63.17
2023-02-22T22:53:57.143Z,63.17
2023-02-22T22:56:27.862Z,57.38
2023-02-22T22:59:01.313Z,59.17
2023-02-22T23:01:34.293Z,63.92
2023-02-22T23:04:05.116Z,52.55
2023-02-22T23:06:36.170Z,59.85
2023-02-22T23:09:11.560Z,55.90
2023-02-22T23:11:44.762Z,60.00
2023-02-22T23:14:15.085Z,56.50
2023-02-22T23:16:45.036Z,55.90
2023-02-22T23:19:15.540Z,55.65
2023-02-22T23:21:44.653Z,60.38
2023-02-22T23:24:17.217Z,53.20
2023-02-22T23:26:48.896Z,57.58
2023-02-22T23:29:17.864Z,54.80
2023-02-22T23:31:48.812Z,53.75
2023-02-22T23:34:18.255Z,55.75
2023-02-22T23:36:54.558Z,57.08
2023-02-22T23:39:25.605Z,51.00
2023-02-22T23:41:54.605Z,55.97
2023-02-22T23:44:23.072Z,59.63
2023-02-22T23:46:55.625Z,54.42
2023-02-22T23:49:26.548Z,56.40
2023-02-22T23:51:55.643Z,57.75
2023-02-22T23:54:25.560Z,55.70
2023-02-22T23:56:56.971Z,57.22
2023-02-22T23:59:26.097Z,58.85
